Time;durP1;ratioP1;P1;durP2;ratioP2;P2;SDS_P1;SDS_P2;PMS_P1;PMS_P2;Temp;Humidity;BMP_temperature;BMP_pressure;BME280_temperature;BME280_humidity;BME280_pressure;Samples;Min_cycle;Max_cycle;Signal;HPM_P1;HPM_P2
2024/04/01 00:00:23;;;;;;;0.73;0.60;;;9.40;99.90;;;;;;8300724;28;20118;-85
2024/04/01 00:04:24;;;;;;;0.63;0.40;;;9.40;99.90;;;;;;8298481;28;20037;-85
2024/04/01 00:08:25;;;;;;;1.38;0.38;;;9.40;99.90;;;;;;8298426;28;20112;-84
2024/04/01 00:12:25;;;;;;;0.32;0.30;;;9.30;99.90;;;;;;8311665;28;20041;-85
2024/04/01 00:16:26;;;;;;;0.70;0.55;;;9.20;99.90;;;;;;8299378;28;20022;-85
2024/04/01 00:20:27;;;;;;;3.30;0.50;;;9.30;99.90;;;;;;8299277;28;20037;-84
2024/04/01 00:24:27;;;;;;;0.85;0.40;;;9.20;99.90;;;;;;8296268;28;20117;-85
2024/04/01 00:28:28;;;;;;;0.50;0.40;;;9.20;99.90;;;;;;8298459;28;20030;-84
2024/04/01 00:32:30;;;;;;;3.20;0.50;;;9.10;99.90;;;;;;8298232;28;20076;-84
2024/04/01 00:36:31;;;;;;;1.00;0.50;;;9.00;99.90;;;;;;8295583;28;20014;-84
2024/04/01 00:40:34;;;;;;;1.23;0.50;;;8.90;99.90;;;;;;8299766;28;20541;-83
2024/04/01 00:44:35;;;;;;;0.60;0.40;;;8.90;99.90;;;;;;8299927;28;20034;-84
2024/04/01 00:48:36;;;;;;;2.25;0.70;;;8.90;99.90;;;;;;8299505;28;20064;-84
2024/04/01 00:52:36;;;;;;;2.33;0.60;;;8.70;99.90;;;;;;8292091;28;20034;-84
2024/04/01 00:56:39;;;;;;;2.83;0.63;;;8.60;99.90;;;;;;8296934;28;20025;-84
2024/04/01 01:00:40;;;;;;;1.08;0.50;;;8.50;99.90;;;;;;8296611;28;20033;-84
2024/04/01 01:04:42;;;;;;;0.40;0.40;;;8.40;99.90;;;;;;8293288;28;20108;-85
2024/04/01 01:08:44;;;;;;;2.13;0.47;;;8.30;99.90;;;;;;8289419;28;20483;-84
2024/04/01 01:12:44;;;;;;;2.05;0.57;;;8.40;99.90;;;;;;8313350;28;20025;-84
2024/04/01 01:16:45;;;;;;;1.35;0.60;;;8.50;99.90;;;;;;8296853;28;20109;-84
2024/04/01 01:20:45;;;;;;;0.93;0.50;;;8.50;99.90;;;;;;8291769;28;20038;-84
2024/04/01 01:24:46;;;;;;;0.85;0.40;;;8.40;99.90;;;;;;8303580;28;20045;-84
2024/04/01 01:28:50;;;;;;;0.77;0.50;;;8.40;99.90;;;;;;8294192;28;20029;-84
2024/04/01 01:32:55;;;;;;;0.68;0.40;;;8.50;99.90;;;;;;8294645;28;20073;-84
2024/04/01 01:36:56;;;;;;;1.17;0.47;;;8.50;99.90;;;;;;8295481;28;20025;-84
2024/04/01 01:40:56;;;;;;;0.30;0.30;;;8.50;99.90;;;;;;8297945;28;20029;-84
2024/04/01 01:44:57;;;;;;;0.75;0.50;;;8.10;99.90;;;;;;8295764;28;20075;-84
2024/04/01 01:48:57;;;;;;;1.10;0.55;;;7.80;99.90;;;;;;8299110;28;20593;-84
2024/04/01 01:52:58;;;;;;;1.45;0.40;;;7.60;99.90;;;;;;8309657;28;20079;-85
2024/04/01 01:56:58;;;;;;;0.47;0.40;;;7.40;99.90;;;;;;8296547;28;20026;-84
2024/04/01 02:00:59;;;;;;;0.50;0.47;;;7.30;99.90;;;;;;8296421;28;20022;-84
2024/04/01 02:04:59;;;;;;;1.48;0.30;;;7.50;99.90;;;;;;8291937;28;20105;-84
2024/04/01 02:09:00;;;;;;;0.73;0.40;;;7.70;99.90;;;;;;8312529;28;20053;-84
2024/04/01 02:13:00;;;;;;;1.33;0.68;;;7.90;99.90;;;;;;8284233;28;20028;-84
2024/04/01 02:17:01;;;;;;;2.60;0.60;;;7.80;99.90;;;;;;8291445;28;20025;-84
2024/04/01 02:21:02;;;;;;;1.88;0.50;;;7.80;99.90;;;;;;8293186;28;20554;-84
2024/04/01 02:25:04;;;;;;;1.75;0.50;;;7.50;99.90;;;;;;8297681;28;20037;-85
2024/04/01 02:29:05;;;;;;;2.78;0.30;;;7.40;99.90;;;;;;8293768;28;20097;-84
2024/04/01 02:33:05;;;;;;;0.70;0.60;;;7.30;99.90;;;;;;8291641;28;20038;-85
2024/04/01 02:37:06;;;;;;;0.95;0.50;;;7.60;99.90;;;;;;8292680;28;20026;-84
2024/04/01 02:41:06;;;;;;;0.50;0.40;;;7.10;99.90;;;;;;8297305;28;20546;-85
2024/04/01 02:45:07;;;;;;;0.77;0.50;;;6.80;99.90;;;;;;8296948;28;20030;-84
2024/04/01 02:49:09;;;;;;;0.30;0.25;;;6.80;99.90;;;;;;8293331;28;20498;-84
2024/04/01 02:53:10;;;;;;;1.33;0.70;;;6.80;99.90;;;;;;8311626;28;20048;-85
2024/04/01 02:57:10;;;;;;;1.35;0.55;;;6.80;99.90;;;;;;8293861;28;20047;-84
2024/04/01 03:01:12;;;;;;;0.60;0.50;;;6.60;99.90;;;;;;8312699;28;20413;-84
2024/04/01 03:05:17;;;;;;;0.63;0.60;;;6.90;99.90;;;;;;8295515;28;20503;-85
2024/04/01 03:09:17;;;;;;;0.40;0.30;;;6.70;99.90;;;;;;8299118;28;20029;-84
2024/04/01 03:13:18;;;;;;;0.70;0.40;;;6.70;99.90;;;;;;8299105;28;20502;-84
2024/04/01 03:17:18;;;;;;;0.65;0.63;;;6.90;99.90;;;;;;8301131;28;20034;-84
2024/04/01 03:21:19;;;;;;;0.70;0.50;;;7.00;99.90;;;;;;8303177;28;20482;-84
2024/04/01 03:25:20;;;;;;;0.73;0.50;;;7.00;99.90;;;;;;8300299;28;20491;-84
2024/04/01 03:29:21;;;;;;;1.08;0.55;;;7.00;99.90;;;;;;8299261;28;20053;-84
2024/04/01 03:33:21;;;;;;;1.38;0.40;;;7.10;99.90;;;;;;8299628;28;20159;-84
2024/04/01 03:37:22;;;;;;;0.35;0.30;;;7.50;99.90;;;;;;8299077;28;20118;-84
2024/04/01 03:41:23;;;;;;;1.23;0.38;;;7.50;99.90;;;;;;8298773;28;20029;-84
2024/04/01 03:45:23;;;;;;;0.47;0.38;;;7.30;99.90;;;;;;8300387;28;20109;-85
2024/04/01 03:49:24;;;;;;;0.40;0.40;;;7.30;99.90;;;;;;8299419;28;20038;-84
2024/04/01 03:53:24;;;;;;;1.88;0.50;;;7.40;99.90;;;;;;8298060;28;20026;-84
2024/04/01 03:57:25;;;;;;;0.95;0.50;;;7.40;99.90;;;;;;8301997;28;20014;-84
2024/04/01 04:01:27;;;;;;;3.30;0.45;;;7.40;99.90;;;;;;8297153;28;20056;-84
2024/04/01 04:05:28;;;;;;;0.80;0.50;;;7.50;99.90;;;;;;8299472;28;20088;-84
2024/04/01 04:09:28;;;;;;;1.13;0.55;;;7.50;99.90;;;;;;8314364;28;20036;-84
2024/04/01 04:13:29;;;;;;;3.40;0.70;;;7.50;99.90;;;;;;8298672;28;20041;-84
2024/04/01 04:17:30;;;;;;;3.40;0.73;;;7.50;99.90;;;;;;8313350;28;20630;-84
2024/04/01 04:21:31;;;;;;;2.97;0.80;;;7.70;99.90;;;;;;8295831;28;20029;-84
2024/04/01 04:25:31;;;;;;;1.77;0.50;;;8.00;99.90;;;;;;8297794;28;20045;-85
2024/04/01 04:29:32;;;;;;;1.10;0.60;;;7.80;99.90;;;;;;8297724;28;20025;-84
2024/04/01 04:33:32;;;;;;;0.63;0.50;;;7.80;99.90;;;;;;8297801;28;20049;-84
2024/04/01 04:37:33;;;;;;;1.33;0.73;;;7.90;99.90;;;;;;8297530;28;20072;-84
2024/04/01 04:41:33;;;;;;;1.15;0.80;;;7.70;99.90;;;;;;8303945;28;20585;-84
2024/04/01 04:45:34;;;;;;;0.60;0.57;;;7.60;99.90;;;;;;8312748;28;20029;-84
2024/04/01 04:49:34;;;;;;;0.82;0.60;;;7.60;99.90;;;;;;8320246;28;20454;-83
2024/04/01 04:53:36;;;;;;;2.72;0.60;;;7.60;99.90;;;;;;8297986;28;20020;-84
2024/04/01 04:57:37;;;;;;;0.65;0.60;;;7.90;99.90;;;;;;8293335;28;20040;-84
2024/04/01 05:01:37;;;;;;;0.80;0.65;;;7.80;99.90;;;;;;8293965;28;20026;-85
2024/04/01 05:05:38;;;;;;;0.52;0.40;;;7.90;99.90;;;;;;8300661;28;20034;-84
2024/04/01 05:09:38;;;;;;;1.65;0.70;;;7.90;99.90;;;;;;8293659;28;20033;-84
2024/04/01 05:13:39;;;;;;;1.15;0.70;;;8.10;99.90;;;;;;8298155;28;20052;-84
2024/04/01 05:17:40;;;;;;;1.00;0.65;;;8.00;99.90;;;;;;8296329;28;20029;-85
2024/04/01 05:21:40;;;;;;;1.35;0.60;;;7.90;99.90;;;;;;8297532;28;20185;-84
2024/04/01 05:25:41;;;;;;;2.88;0.50;;;7.90;99.90;;;;;;8292774;28;20401;-84
2024/04/01 05:29:41;;;;;;;1.00;0.63;;;8.00;99.90;;;;;;8295619;28;20034;-84
2024/04/01 05:33:42;;;;;;;2.17;1.27;;;8.00;99.90;;;;;;8290828;28;20034;-84
2024/04/01 05:37:43;;;;;;;4.45;1.20;;;8.30;99.90;;;;;;8293078;28;20029;-85
2024/04/01 05:41:44;;;;;;;4.88;0.95;;;8.10;99.90;;;;;;8289548;28;20037;-84
2024/04/01 05:45:44;;;;;;;1.65;0.80;;;8.10;99.90;;;;;;8292617;28;20036;-84
2024/04/01 05:49:45;;;;;;;1.65;0.80;;;8.30;99.90;;;;;;8289168;28;20064;-84
2024/04/01 05:53:45;;;;;;;2.17;0.40;;;8.30;99.90;;;;;;8297707;28;20029;-83
2024/04/01 05:57:46;;;;;;;0.10;0.10;;;8.50;99.90;;;;;;8301424;28;20041;-83
2024/04/01 06:01:47;;;;;;;0.43;0.20;;;9.00;99.90;;;;;;8294169;28;20113;-83
2024/04/01 06:05:47;;;;;;;0.60;0.15;;;9.50;99.90;;;;;;8294683;28;20072;-84
2024/04/01 06:09:48;;;;;;;0.10;0.08;;;9.80;99.90;;;;;;8295697;28;20026;-83
2024/04/01 06:13:48;;;;;;;0.25;0.20;;;10.00;99.90;;;;;;8293461;28;20018;-82
2024/04/01 06:17:52;;;;;;;0.73;0.43;;;10.10;99.90;;;;;;8298510;28;20018;-82
2024/04/01 06:21:53;;;;;;;1.05;0.28;;;10.10;99.90;;;;;;8296331;28;20034;-84
2024/04/01 06:25:53;;;;;;;0.28;0.28;;;10.00;99.90;;;;;;8293410;28;20797;-84
2024/04/01 06:29:54;;;;;;;4.15;0.60;;;9.90;99.90;;;;;;8285855;28;20030;-83
2024/04/01 06:33:55;;;;;;;1.35;0.88;;;9.80;99.90;;;;;;8294350;28;20032;-82
2024/04/01 06:37:55;;;;;;;2.65;0.85;;;9.80;99.90;;;;;;8314832;28;20064;-82
2024/04/01 06:41:56;;;;;;;1.20;0.43;;;9.70;99.90;;;;;;8291142;28;20026;-81
2024/04/01 06:45:58;;;;;;;0.98;0.40;;;9.50;99.90;;;;;;8301286;28;20022;-81
2024/04/01 06:49:59;;;;;;;0.52;0.38;;;9.40;99.90;;;;;;8296914;28;20022;-82
2024/04/01 06:53:59;;;;;;;0.60;0.50;;;9.20;99.90;;;;;;8300321;28;20030;-82
2024/04/01 06:58:00;;;;;;;0.15;0.13;;;9.10;99.90;;;;;;8302477;28;20045;-84
2024/04/01 07:02:00;;;;;;;0.25;0.20;;;9.00;99.90;;;;;;8297213;28;20026;-85
2024/04/01 07:06:01;;;;;;;0.70;0.38;;;8.80;99.90;;;;;;8304896;28;20064;-84
2024/04/01 07:10:01;;;;;;;0.17;0.15;;;8.90;99.90;;;;;;8300963;28;20633;-83
2024/04/01 07:14:02;;;;;;;0.32;0.17;;;8.80;99.90;;;;;;8293468;28;20022;-83
2024/04/01 07:18:03;;;;;;;0.13;0.10;;;8.70;99.90;;;;;;8297823;28;20421;-83
2024/04/01 07:22:06;;;;;;;0.25;0.20;;;8.70;99.90;;;;;;8310230;28;20128;-84
2024/04/01 07:26:07;;;;;;;0.20;0.20;;;8.80;99.90;;;;;;8296437;28;20022;-83
2024/04/01 07:30:11;;;;;;;0.20;0.20;;;8.90;99.90;;;;;;8295344;28;20070;-83
2024/04/01 07:34:11;;;;;;;0.45;0.13;;;9.30;99.90;;;;;;8294753;28;20029;-83
2024/04/01 07:38:12;;;;;;;0.20;0.10;;;8.80;99.90;;;;;;8296578;28;20454;-82
2024/04/01 07:42:13;;;;;;;0.10;0.10;;;8.70;99.90;;;;;;8292252;28;20030;-81
2024/04/01 07:46:13;;;;;;;3.05;0.95;;;8.80;99.90;;;;;;8294696;28;20096;-81
2024/04/01 07:50:14;;;;;;;0.57;0.40;;;8.60;99.90;;;;;;8288312;28;20125;-83
2024/04/01 07:54:14;;;;;;;0.30;0.20;;;8.50;99.90;;;;;;8292311;28;20025;-83
2024/04/01 07:58:15;;;;;;;0.52;0.40;;;8.40;99.90;;;;;;8290406;28;20030;-82
2024/04/01 08:02:15;;;;;;;1.15;0.50;;;8.40;99.90;;;;;;8286520;28;20031;-83
2024/04/01 08:06:16;;;;;;;0.20;0.20;;;8.40;99.90;;;;;;8312482;28;20033;-82
2024/04/01 08:10:17;;;;;;;0.50;0.40;;;8.40;99.90;;;;;;8294068;28;20026;-81
2024/04/01 08:14:18;;;;;;;0.40;0.30;;;8.40;99.90;;;;;;8291306;28;20049;-82
2024/04/01 08:18:18;;;;;;;0.45;0.30;;;8.50;99.90;;;;;;8295672;28;20022;-82
2024/04/01 08:22:19;;;;;;;0.38;0.20;;;8.50;99.90;;;;;;8285509;28;20048;-83
2024/04/01 08:26:19;;;;;;;0.20;0.13;;;8.60;99.90;;;;;;8293760;28;20118;-82
2024/04/01 08:30:20;;;;;;;0.32;0.28;;;9.10;99.90;;;;;;8296745;28;20026;-83
2024/04/01 08:34:20;;;;;;;0.20;0.20;;;9.60;99.90;;;;;;8301542;28;20034;-83
2024/04/01 08:38:21;;;;;;;0.95;0.30;;;9.80;99.90;;;;;;8297327;28;20394;-82
2024/04/01 08:42:22;;;;;;;0.95;0.38;;;10.00;99.90;;;;;;8295601;28;20077;-83
2024/04/01 08:46:25;;;;;;;0.20;0.20;;;9.80;99.90;;;;;;8285591;28;20041;-82
2024/04/01 08:50:35;;;;;;;0.17;0.17;;;9.40;99.90;;;;;;8297991;28;20068;-82
2024/04/01 08:54:35;;;;;;;1.67;0.20;;;9.20;99.90;;;;;;8298153;28;20025;-81
2024/04/01 08:58:36;;;;;;;0.57;0.40;;;9.00;99.90;;;;;;8312294;28;20120;-81
2024/04/01 09:02:37;;;;;;;2.45;1.33;;;8.80;99.90;;;;;;8285944;28;20026;-81
2024/04/01 09:06:38;;;;;;;0.32;0.32;;;8.80;99.90;;;;;;8292722;28;20025;-79
2024/04/01 09:10:38;;;;;;;4.03;2.10;;;8.70;99.90;;;;;;8295019;28;20037;-82
2024/04/01 09:14:39;;;;;;;8.30;3.15;;;8.60;99.90;;;;;;8300116;28;20022;-81
2024/04/01 09:18:39;;;;;;;0.20;0.20;;;8.60;99.90;;;;;;8289919;28;20037;-81
2024/04/01 09:22:40;;;;;;;0.10;0.10;;;8.60;99.90;;;;;;8293185;28;20038;-82
2024/04/01 09:26:43;;;;;;;0.10;0.10;;;8.70;99.90;;;;;;8300011;28;20028;-83
2024/04/01 09:30:44;;;;;;;0.20;0.20;;;8.90;99.90;;;;;;8292294;28;20129;-84
2024/04/01 09:34:44;;;;;;;1.08;0.20;;;8.90;99.90;;;;;;8285892;28;20030;-83
2024/04/01 09:38:46;;;;;;;0.20;0.20;;;8.90;99.90;;;;;;8297402;28;20028;-83
2024/04/01 09:42:49;;;;;;;0.10;0.10;;;9.20;99.90;;;;;;8291080;28;20038;-85
2024/04/01 09:46:54;;;;;;;0.10;0.10;;;9.50;99.90;;;;;;8286329;28;20042;-84
2024/04/01 09:50:56;;;;;;;0.20;0.20;;;9.70;99.90;;;;;;8289564;28;20025;-84
2024/04/01 09:55:05;;;;;;;1.75;0.63;;;10.20;99.90;;;;;;8300994;28;20018;-83
2024/04/01 09:59:30;;;;;;;0.32;0.28;;;10.80;99.90;;;;;;8296419;28;20030;-85
2024/04/01 10:03:57;;;;;;;2.05;0.30;;;10.80;99.90;;;;;;8296196;28;20518;-84
2024/04/01 10:08:10;;;;;;;0.90;0.30;;;10.70;99.90;;;;;;8312679;28;20040;-82
2024/04/01 10:12:44;;;;;;;0.28;0.20;;;11.10;99.90;;;;;;8294594;28;20037;-84
2024/04/01 10:16:44;;;;;;;0.15;0.15;;;11.60;99.90;;;;;;8305839;28;20045;-84
2024/04/01 10:21:29;;;;;;;0.20;0.20;;;11.50;99.90;;;;;;8295793;28;20041;-83
2024/04/01 10:25:54;;;;;;;0.10;0.10;;;11.40;99.90;;;;;;8306720;28;20033;-84
2024/04/01 10:30:25;;;;;;;0.40;0.40;;;11.10;99.90;;;;;;8307975;28;20525;-83
2024/04/01 10:34:52;;;;;;;0.32;0.25;;;11.00;99.90;;;;;;8296655;28;20022;-84
2024/04/01 10:39:41;;;;;;;0.50;0.45;;;10.90;99.90;;;;;;8297315;28;20050;-84
2024/04/01 10:44:20;;;;;;;0.50;0.50;;;10.50;99.90;;;;;;8292977;28;20064;-82
2024/04/01 10:48:25;;;;;;;0.10;0.10;;;10.50;99.90;;;;;;8292768;28;20032;-83
2024/04/01 10:52:51;;;;;;;0.13;0.13;;;10.40;99.90;;;;;;8296052;28;20499;-83
2024/04/01 10:57:19;;;;;;;0.20;0.20;;;10.90;99.90;;;;;;8295991;28;20026;-83
2024/04/01 11:01:51;;;;;;;0.10;0.10;;;11.00;99.90;;;;;;8315420;28;20053;-83
2024/04/01 11:06:06;;;;;;;0.13;0.10;;;11.80;99.90;;;;;;8292221;28;20508;-81
2024/04/01 11:10:25;;;;;;;0.47;0.10;;;12.00;99.90;;;;;;8293733;28;20681;-83
2024/04/01 11:14:28;;;;;;;0.10;0.10;;;12.50;99.90;;;;;;8296378;28;20029;-81
2024/04/01 11:18:48;;;;;;;0.10;0.10;;;13.20;99.90;;;;;;8290607;28;20105;-82
2024/04/01 11:23:17;;;;;;;0.10;0.10;;;14.00;99.90;;;;;;8295170;28;20719;-82
2024/04/01 11:27:26;;;;;;;0.20;0.20;;;13.50;99.90;;;;;;8294716;28;20068;-82
2024/04/01 11:31:30;;;;;;;0.57;0.10;;;11.80;99.90;;;;;;8295318;28;20035;-83
2024/04/01 11:35:47;;;;;;;0.20;0.20;;;11.30;99.90;;;;;;8314010;28;20055;-82
2024/04/01 11:39:53;;;;;;;0.20;0.10;;;11.30;99.90;;;;;;8288115;28;20085;-80
2024/04/01 11:43:54;;;;;;;0.15;0.10;;;11.30;99.90;;;;;;8317853;28;20407;-83
2024/04/01 11:47:56;;;;;;;0.10;0.10;;;11.10;99.90;;;;;;8306912;28;20445;-83
2024/04/01 11:51:56;;;;;;;0.10;0.10;;;11.60;99.90;;;;;;8297685;28;20030;-81
2024/04/01 11:56:00;;;;;;;0.17;0.17;;;11.80;99.90;;;;;;8310635;28;20040;-82
2024/04/01 12:00:06;;;;;;;0.17;0.17;;;11.40;99.90;;;;;;8291816;28;20029;-83
2024/04/01 12:04:17;;;;;;;0.20;0.20;;;10.90;99.90;;;;;;8299384;28;20093;-81
2024/04/01 12:08:23;;;;;;;0.40;0.20;;;10.90;99.90;;;;;;8307244;28;20064;-83
2024/04/01 12:12:27;;;;;;;0.30;0.20;;;11.10;99.90;;;;;;8307079;28;20018;-84
2024/04/01 12:16:33;;;;;;;0.17;0.17;;;11.30;99.90;;;;;;8318297;28;20403;-83
2024/04/01 12:20:37;;;;;;;0.20;0.20;;;11.50;99.90;;;;;;8297954;28;20029;-83
2024/04/01 12:24:42;;;;;;;0.17;0.17;;;11.80;99.90;;;;;;8315867;28;20036;-83
2024/04/01 12:28:44;;;;;;;1.13;0.10;;;12.00;99.90;;;;;;8299187;28;20034;-82
2024/04/01 12:32:47;;;;;;;1.27;0.10;;;11.70;99.90;;;;;;8306773;28;20065;-83
2024/04/01 12:36:48;;;;;;;0.80;0.20;;;12.20;99.90;;;;;;8297979;28;20018;-82
2024/04/01 12:40:51;;;;;;;1.35;0.10;;;13.00;99.90;;;;;;8306623;28;20125;-82
2024/04/01 12:44:53;;;;;;;0.13;0.13;;;13.00;99.90;;;;;;8302886;28;20038;-83
2024/04/01 12:48:57;;;;;;;0.10;0.10;;;12.90;99.90;;;;;;8305487;28;20025;-82
2024/04/01 12:53:19;;;;;;;0.10;0.10;;;12.60;99.90;;;;;;8328800;28;20041;-81
2024/04/01 12:57:54;;;;;;;0.32;0.10;;;12.50;99.90;;;;;;8330547;28;20045;-82
2024/04/01 13:02:13;;;;;;;0.10;0.10;;;12.40;99.90;;;;;;8318494;28;20022;-81
2024/04/01 13:06:45;;;;;;;0.10;0.10;;;12.30;99.90;;;;;;8330454;28;20002;-83
2024/04/01 13:11:15;;;;;;;0.40;0.40;;;12.40;99.90;;;;;;8316575;28;20057;-82
2024/04/01 13:15:49;;;;;;;23.33;9.00;;;12.60;99.90;;;;;;8311372;28;20030;-84
2024/04/01 13:20:01;;;;;;;0.10;0.10;;;12.80;99.90;;;;;;8309181;28;20065;-84
2024/04/01 13:24:12;;;;;;;0.17;0.17;;;12.30;99.90;;;;;;8309567;28;20041;-83
2024/04/01 13:28:23;;;;;;;;;;;12.00;99.90;;;;;;8311079;28;20030;-83
2024/04/01 13:32:38;;;;;;;0.10;0.10;;;11.40;99.90;;;;;;8308937;28;19924;-83
2024/04/01 13:37:05;;;;;;;0.17;0.10;;;11.40;99.90;;;;;;8309803;28;20018;-84
2024/04/01 13:41:25;;;;;;;0.88;0.10;;;11.30;99.90;;;;;;8324323;28;20053;-84
2024/04/01 13:45:47;;;;;;;0.10;0.10;;;11.30;99.90;;;;;;8332713;28;20057;-82
2024/04/01 13:50:27;;;;;;;0.68;0.40;;;11.20;99.90;;;;;;8314895;28;20041;-84
2024/04/01 13:54:35;;;;;;;0.20;0.20;;;11.20;99.90;;;;;;8312877;28;20676;-83
2024/04/01 13:59:03;;;;;;;0.28;0.10;;;11.50;99.90;;;;;;8313898;28;20088;-82
2024/04/01 14:03:13;;;;;;;0.10;0.10;;;11.20;99.90;;;;;;8312673;28;20030;-84
2024/04/01 14:07:52;;;;;;;0.20;0.20;;;11.20;99.90;;;;;;8311245;28;20030;-83
2024/04/01 14:12:43;;;;;;;0.10;0.10;;;11.40;99.90;;;;;;8307200;28;20038;-84
2024/04/01 14:16:57;;;;;;;0.10;0.10;;;11.10;99.90;;;;;;8265672;28;20030;-83
2024/04/01 14:20:58;;;;;;;0.20;0.13;;;10.90;99.90;;;;;;8304756;28;20025;-83
2024/04/01 14:25:06;;;;;;;0.10;0.10;;;11.20;99.90;;;;;;8309944;28;20030;-83
2024/04/01 14:29:07;;;;;;;0.00;0.00;;;11.40;99.90;;;;;;8311543;28;20036;-82
2024/04/01 14:33:08;;;;;;;0.10;0.10;;;11.30;99.90;;;;;;8308476;28;20033;-84
2024/04/01 14:37:10;;;;;;;0.20;0.20;;;11.40;99.90;;;;;;8310007;28;20025;-84
2024/04/01 14:41:10;;;;;;;0.30;0.30;;;11.50;99.90;;;;;;8310549;28;20026;-84
2024/04/01 14:45:11;;;;;;;1.55;0.10;;;11.40;99.90;;;;;;8305745;28;20029;-84
2024/04/01 14:49:12;;;;;;;0.10;0.10;;;11.50;99.90;;;;;;8310991;28;20033;-82
2024/04/01 14:53:14;;;;;;;0.13;0.13;;;11.60;99.90;;;;;;8314166;28;20045;-83
2024/04/01 14:57:14;;;;;;;0.10;0.10;;;11.70;99.90;;;;;;8308538;28;20040;-83
2024/04/01 15:01:16;;;;;;;0.10;0.10;;;11.60;99.90;;;;;;8312156;28;20104;-82
2024/04/01 15:05:17;;;;;;;0.10;0.10;;;11.70;99.90;;;;;;8311489;28;20097;-84
2024/04/01 15:09:18;;;;;;;0.13;0.13;;;11.60;99.90;;;;;;8311159;28;20044;-83
2024/04/01 15:13:23;;;;;;;0.10;0.10;;;11.70;99.90;;;;;;8311913;28;20030;-84
2024/04/01 15:17:23;;;;;;;0.10;0.10;;;11.50;99.90;;;;;;8312009;28;20073;-83
2024/04/01 15:21:25;;;;;;;0.10;0.10;;;11.70;99.90;;;;;;8311994;28;20028;-83
2024/04/01 15:25:26;;;;;;;0.35;0.10;;;12.10;99.90;;;;;;8310113;28;20046;-82
2024/04/01 15:29:27;;;;;;;0.20;0.20;;;12.00;99.90;;;;;;8308723;28;20049;-82
2024/04/01 15:33:30;;;;;;;0.10;0.10;;;11.90;99.90;;;;;;8309045;28;20033;-82
2024/04/01 15:37:33;;;;;;;0.45;0.43;;;11.90;99.90;;;;;;8310369;28;20037;-82
2024/04/01 15:41:34;;;;;;;0.10;0.10;;;11.90;99.90;;;;;;8312440;28;20046;-83
2024/04/01 15:45:35;;;;;;;0.10;0.10;;;11.90;99.90;;;;;;8307452;28;20033;-83
2024/04/01 15:49:39;;;;;;;0.30;0.30;;;12.20;99.90;;;;;;8313561;28;20052;-83
2024/04/01 15:53:40;;;;;;;0.15;0.15;;;12.50;99.90;;;;;;8308862;28;20091;-84
2024/04/01 15:57:41;;;;;;;0.20;0.20;;;12.50;99.90;;;;;;8309042;28;20370;-84
2024/04/01 16:01:43;;;;;;;0.20;0.20;;;12.60;99.90;;;;;;8318247;28;20030;-84
2024/04/01 16:05:49;;;;;;;0.50;0.50;;;12.20;99.90;;;;;;8310131;28;20049;-82
2024/04/01 16:09:50;;;;;;;0.20;0.20;;;11.90;99.90;;;;;;8307702;28;20120;-84
2024/04/01 16:13:53;;;;;;;0.38;0.20;;;11.70;99.90;;;;;;8310523;28;20040;-84
2024/04/01 16:17:54;;;;;;;0.10;0.10;;;11.60;99.90;;;;;;8310552;28;20041;-84
2024/04/01 16:22:00;;;;;;;0.63;0.22;;;11.60;99.90;;;;;;8308752;28;20033;-83
2024/04/01 16:26:01;;;;;;;0.20;0.20;;;11.40;99.90;;;;;;8326211;28;20025;-84
2024/04/01 16:30:11;;;;;;;0.30;0.20;;;11.10;99.90;;;;;;8308673;28;20397;-83
2024/04/01 16:34:12;;;;;;;0.20;0.20;;;10.80;99.90;;;;;;8312740;28;20025;-83
2024/04/01 16:38:13;;;;;;;0.10;0.10;;;10.60;99.90;;;;;;8311103;28;20406;-83
2024/04/01 16:42:15;;;;;;;3.13;0.30;;;10.50;99.90;;;;;;8310744;28;20029;-82
2024/04/01 16:46:15;;;;;;;0.30;0.20;;;10.40;99.90;;;;;;8304576;28;20080;-83
2024/04/01 16:50:16;;;;;;;0.20;0.20;;;10.40;99.90;;;;;;8320533;28;20434;-83
2024/04/01 16:54:19;;;;;;;0.13;0.13;;;10.20;99.90;;;;;;8309256;28;20022;-83
2024/04/01 16:58:21;;;;;;;0.20;0.20;;;10.10;99.90;;;;;;8325531;28;20034;-84
2024/04/01 17:02:24;;;;;;;0.30;0.30;;;9.90;99.90;;;;;;8312543;28;20029;-83
2024/04/01 17:06:25;;;;;;;0.20;0.20;;;9.90;99.90;;;;;;8321514;28;20117;-82
2024/04/01 17:10:26;;;;;;;0.15;0.15;;;9.90;99.90;;;;;;8325358;28;20034;-82
2024/04/01 17:14:26;;;;;;;0.60;0.32;;;9.80;99.90;;;;;;8300323;28;20117;-83
2024/04/01 17:18:27;;;;;;;0.10;0.10;;;9.80;99.90;;;;;;8307637;28;20021;-83
2024/04/01 17:22:28;;;;;;;0.50;0.50;;;9.60;99.90;;;;;;8320027;28;20034;-83
2024/04/01 17:26:29;;;;;;;0.32;0.20;;;9.50;99.90;;;;;;8302933;28;20491;-83
2024/04/01 17:30:29;;;;;;;0.35;0.30;;;9.50;99.90;;;;;;8305705;28;20034;-83
2024/04/01 17:34:30;;;;;;;0.52;0.38;;;9.30;99.90;;;;;;8319241;28;20022;-83
2024/04/01 17:38:30;;;;;;;0.52;0.30;;;9.20;99.90;;;;;;8297699;28;20562;-82
2024/04/01 17:42:31;;;;;;;0.30;0.30;;;9.00;99.90;;;;;;8321064;28;20029;-82
2024/04/01 17:46:31;;;;;;;0.73;0.40;;;8.60;99.90;;;;;;8310186;28;20034;-83
2024/04/01 17:50:32;;;;;;;0.30;0.30;;;8.50;99.90;;;;;;8284214;28;20038;-84
2024/04/01 17:54:33;;;;;;;0.20;0.20;;;8.40;99.90;;;;;;8296543;28;20032;-84
2024/04/01 17:58:34;;;;;;;0.10;0.10;;;8.40;99.90;;;;;;8306527;28;20204;-84
2024/04/01 18:02:35;;;;;;;0.20;0.20;;;8.40;99.90;;;;;;8307971;28;20084;-84
2024/04/01 18:06:36;;;;;;;0.45;0.30;;;8.40;99.90;;;;;;8293522;28;20120;-84
2024/04/01 18:10:37;;;;;;;0.30;0.20;;;8.40;99.90;;;;;;8289390;28;20030;-83
2024/04/01 18:14:38;;;;;;;0.30;0.30;;;8.20;99.90;;;;;;8302781;28;20508;-83
2024/04/01 18:18:38;;;;;;;0.90;0.30;;;8.10;99.90;;;;;;8289857;28;20022;-85
2024/04/01 18:22:39;;;;;;;0.40;0.30;;;7.90;99.90;;;;;;8289493;28;20498;-85
2024/04/01 18:26:40;;;;;;;0.32;0.22;;;7.80;99.90;;;;;;8285186;28;20038;-86
2024/04/01 18:30:41;;;;;;;1.17;0.40;;;7.60;99.90;;;;;;8288549;28;20030;-86
2024/04/01 18:34:43;;;;;;;0.28;0.22;;;7.50;99.90;;;;;;8295774;28;20057;-85
2024/04/01 18:38:45;;;;;;;0.43;0.20;;;7.50;99.90;;;;;;8293609;28;20026;-85
2024/04/01 18:42:46;;;;;;;0.57;0.30;;;7.50;99.90;;;;;;8288299;28;20040;-85
2024/04/01 18:46:46;;;;;;;0.40;0.20;;;7.60;99.90;;;;;;8290897;28;20030;-85
2024/04/01 18:50:51;;;;;;;0.20;0.20;;;7.60;99.90;;;;;;8293978;28;20133;-85
2024/04/01 18:54:52;;;;;;;0.45;0.30;;;7.60;99.90;;;;;;8290354;28;20025;-84
2024/04/01 18:58:52;;;;;;;0.20;0.20;;;7.50;99.90;;;;;;8280910;28;20627;-85
2024/04/01 19:02:53;;;;;;;0.22;0.22;;;7.40;99.90;;;;;;8287821;28;20038;-84
2024/04/01 19:06:55;;;;;;;0.30;0.20;;;7.20;99.90;;;;;;8290481;28;20398;-84
2024/04/01 19:10:56;;;;;;;0.40;0.20;;;7.10;99.90;;;;;;8290147;28;20029;-84
2024/04/01 19:14:57;;;;;;;1.25;0.50;;;7.00;99.90;;;;;;8287655;28;20077;-85
2024/04/01 19:18:57;;;;;;;0.28;0.20;;;7.00;99.90;;;;;;8295670;28;20036;-85
2024/04/01 19:22:58;;;;;;;0.52;0.45;;;6.90;99.90;;;;;;8290902;28;20026;-85
2024/04/01 19:26:59;;;;;;;0.40;0.32;;;7.00;99.90;;;;;;8297828;28;20030;-85
2024/04/01 19:31:00;;;;;;;0.30;0.22;;;6.90;99.90;;;;;;8290265;28;20034;-86
2024/04/01 19:35:02;;;;;;;0.25;0.25;;;6.90;99.90;;;;;;8287737;28;20048;-84
2024/04/01 19:39:04;;;;;;;0.63;0.43;;;6.80;99.90;;;;;;8284535;28;20053;-85
2024/04/01 19:43:05;;;;;;;0.40;0.30;;;6.80;99.90;;;;;;8289220;28;20026;-86
2024/04/01 19:47:06;;;;;;;0.20;0.20;;;6.60;99.90;;;;;;8297237;28;20055;-85
2024/04/01 19:51:07;;;;;;;0.40;0.38;;;6.50;99.90;;;;;;8293063;28;20118;-84
2024/04/01 19:55:07;;;;;;;0.30;0.30;;;6.50;99.90;;;;;;8301401;28;20399;-85
2024/04/01 19:59:19;;;;;;;0.63;0.40;;;6.50;99.90;;;;;;8298171;28;20026;-87
2024/04/01 20:03:20;;;;;;;0.50;0.25;;;6.60;99.90;;;;;;8298995;28;20402;-88
2024/04/01 20:07:20;;;;;;;0.60;0.30;;;6.60;99.90;;;;;;8300713;28;20037;-86
2024/04/01 20:11:21;;;;;;;0.20;0.20;;;6.70;99.90;;;;;;8306647;28;20049;-86
2024/04/01 20:15:24;;;;;;;1.05;0.40;;;6.70;99.90;;;;;;8295261;28;20675;-86
2024/04/01 20:19:25;;;;;;;0.40;0.20;;;6.70;99.90;;;;;;8297566;28;20490;-85
2024/04/01 20:23:25;;;;;;;0.30;0.30;;;6.70;99.90;;;;;;8296011;28;20034;-85
2024/04/01 20:27:29;;;;;;;0.30;0.30;;;7.00;99.90;;;;;;8295344;28;20034;-85
2024/04/01 20:31:29;;;;;;;0.45;0.20;;;7.20;99.90;;;;;;8299242;28;20083;-85
2024/04/01 20:35:30;;;;;;;0.13;0.13;;;7.30;99.90;;;;;;8299399;28;20026;-88
2024/04/01 20:39:31;;;;;;;1.67;0.28;;;7.30;99.90;;;;;;8297801;28;20022;-86
2024/04/01 20:43:31;;;;;;;0.55;0.20;;;7.30;99.90;;;;;;8299902;28;20025;-86
2024/04/01 20:47:32;;;;;;;0.35;0.32;;;7.40;99.90;;;;;;8316432;28;20458;-86
2024/04/01 20:51:33;;;;;;;0.28;0.28;;;7.50;99.90;;;;;;8291727;28;20551;-86
2024/04/01 20:55:35;;;;;;;0.40;0.35;;;7.60;99.90;;;;;;8293173;28;20022;-85
2024/04/01 20:59:35;;;;;;;0.20;0.20;;;7.60;99.90;;;;;;8311436;28;20528;-85
2024/04/01 21:03:37;;;;;;;0.30;0.30;;;7.60;99.90;;;;;;8313825;28;20029;-84
2024/04/01 21:07:38;;;;;;;0.30;0.20;;;7.60;99.90;;;;;;8295787;28;20050;-85
2024/04/01 21:11:40;;;;;;;1.95;0.30;;;7.60;99.90;;;;;;8298890;28;20026;-85
2024/04/01 21:15:40;;;;;;;0.60;0.30;;;7.60;99.90;;;;;;8294559;28;20010;-88
2024/04/01 21:19:41;;;;;;;1.20;0.30;;;7.50;99.90;;;;;;8308835;28;20021;-85